Time,TemperatureF,DewpointF,PressureIn,WindDirection,WindDirectionDegrees,WindSpeedMPH,WindSpeedGustMPH,Humidity,HourlyPrecipIn,Conditions,Clouds,dailyrainin,SoftwareType,DateUTC
2013-02-01 00:04:00,14.2,10.6,29.94,WNW,285,7.0,11.0,85,0.00,,,0.00,meteohub,2013-02-01 06:04:00,
2013-02-01 00:09:00,14.2,10.2,29.95,NW,324,6.0,11.0,84,0.00,,,0.00,meteohub,2013-02-01 06:09:00,
2013-02-01 00:14:00,14.2,10.2,29.95,WNW,287,7.0,13.0,84,0.00,,,0.00,meteohub,2013-02-01 06:14:00,
2013-02-01 00:19:00,14.2,10.6,29.95,WNW,287,10.0,13.0,85,0.00,,,0.00,meteohub,2013-02-01 06:19:00,
2013-02-01 00:24:00,14.0,10.4,29.95,West,276,8.0,12.0,85,0.00,,,0.00,meteohub,2013-02-01 06:24:00,
2013-02-01 00:29:00,14.0,10.4,29.96,WSW,256,6.0,13.0,85,0.00,,,0.00,meteohub,2013-02-01 06:29:00,
2013-02-01 00:34:00,13.8,10.2,29.96,NW,324,5.0,16.0,85,0.00,,,0.00,meteohub,2013-02-01 06:34:00,
2013-02-01 00:39:00,13.8,10.2,29.96,WSW,253,10.0,16.0,85,0.00,,,0.00,meteohub,2013-02-01 06:39:00,
2013-02-01 00:44:00,13.6,10.0,29.96,WNW,294,5.0,16.0,85,0.00,,,0.00,meteohub,2013-02-01 06:44:00,
2013-02-01 00:49:00,13.6,9.7,29.96,WNW,295,5.0,10.0,84,0.00,,,0.00,meteohub,2013-02-01 06:49:00,
2013-02-01 00:54:00,13.6,9.7,29.96,WNW,291,5.0,12.0,84,0.00,,,0.00,meteohub,2013-02-01 06:54:00,
2013-02-01 00:59:00,13.5,9.5,29.97,WNW,295,6.0,12.0,84,0.00,,,0.00,meteohub,2013-02-01 06:59:00,
2013-02-01 01:04:00,13.5,9.5,29.97,WNW,291,5.0,11.0,84,0.00,,,0.00,meteohub,2013-02-01 07:04:00,
2013-02-01 01:09:00,13.5,9.9,29.97,WNW,290,3.0,11.0,85,0.00,,,0.00,meteohub,2013-02-01 07:09:00,
2013-02-01 01:14:00,13.3,9.7,29.98,NW,311,6.0,11.0,85,0.00,,,0.00,meteohub,2013-02-01 07:14:00,
2013-02-01 01:19:00,13.3,9.7,29.98,WNW,299,3.0,13.0,85,0.00,,,0.00,meteohub,2013-02-01 07:19:00,
2013-02-01 01:24:00,13.3,9.7,29.98,WNW,283,3.0,13.0,85,0.00,,,0.00,meteohub,2013-02-01 07:24:00,
2013-02-01 01:29:00,13.1,9.5,29.98,West,276,3.0,13.0,85,0.00,,,0.00,meteohub,2013-02-01 07:29:00,
2013-02-01 01:34:00,13.1,9.7,29.99,NW,308,4.0,10.0,86,0.00,,,0.00,meteohub,2013-02-01 07:34:00,
2013-02-01 01:39:00,13.1,9.7,29.99,WNW,294,5.0,10.0,86,0.00,,,0.00,meteohub,2013-02-01 07:39:00,
2013-02-01 01:44:00,13.1,9.7,29.99,West,264,7.0,10.0,86,0.00,,,0.00,meteohub,2013-02-01 07:44:00,
2013-02-01 01:49:00,13.1,10.0,29.99,NW,323,6.0,10.0,87,0.00,,,0.00,meteohub,2013-02-01 07:49:00,
2013-02-01 01:54:00,13.3,10.2,29.99,NW,308,6.0,10.0,87,0.00,,,0.00,meteohub,2013-02-01 07:54:00,
2013-02-01 01:59:00,13.3,10.2,30.00,WNW,290,4.0,13.0,87,0.00,,,0.00,meteohub,2013-02-01 07:59:00,
2013-02-01 02:04:00,13.1,10.0,30.00,NW,307,5.0,13.0,87,0.00,,,0.00,meteohub,2013-02-01 08:04:00,
2013-02-01 02:09:00,13.3,10.2,30.00,WNW,298,3.0,13.0,87,0.00,,,0.00,meteohub,2013-02-01 08:09:00,
2013-02-01 02:14:00,13.3,10.2,30.00,WNW,291,4.0,12.0,87,0.00,,,0.00,meteohub,2013-02-01 08:14:00,
2013-02-01 02:19:00,13.3,10.2,30.01,WSW,255,5.0,12.0,87,0.00,,,0.00,meteohub,2013-02-01 08:19:00,
2013-02-01 02:24:00,13.3,10.2,30.01,NW,319,7.0,10.0,87,0.00,,,0.00,meteohub,2013-02-01 08:24:00,
2013-02-01 02:30:00,13.3,10.2,30.01,WNW,290,5.0,10.0,87,0.00,,,0.00,meteohub,2013-02-01 08:30:00,
2013-02-01 02:34:00,13.3,10.2,30.01,WNW,292,4.0,11.0,87,0.00,,,0.00,meteohub,2013-02-01 08:34:00,
2013-02-01 02:39:00,13.3,10.2,30.02,West,260,3.0,11.0,87,0.00,,,0.00,meteohub,2013-02-01 08:39:00,
2013-02-01 02:44:00,12.2,9.5,30.02,West,277,3.0,10.0,89,0.00,,,0.00,meteohub,2013-02-01 08:44:00,
2013-02-01 02:49:00,13.6,10.9,30.02,WSW,249,8.0,10.0,89,0.00,,,0.00,meteohub,2013-02-01 08:49:00,
2013-02-01 02:54:00,13.6,10.9,30.02,North,-999,-999.0,10.0,89,0.00,,,0.00,meteohub,2013-02-01 08:54:00,
2013-02-01 07:21:00,12.6,8.1,30.17,North,-999,-999.0,-999.0,82,-99.99,,,0.00,meteohub,2013-02-01 13:21:00,
2013-02-01 07:26:00,12.7,8.2,30.17,North,-999,-999.0,-999.0,82,-99.99,,,0.00,meteohub,2013-02-01 13:26:00,
2013-02-01 07:31:00,12.7,8.1,30.17,WNW,302,4.0,-999.0,81,0.00,,,0.00,meteohub,2013-02-01 13:31:00,
2013-02-01 07:36:00,12.9,8.2,30.17,West,274,6.0,-999.0,81,0.00,,,0.00,meteohub,2013-02-01 13:36:00,
2013-02-01 07:41:00,13.1,8.1,30.17,WNW,285,3.0,12.0,80,0.00,,,0.00,meteohub,2013-02-01 13:41:00,
2013-02-01 07:46:00,13.3,8.2,30.18,WNW,293,5.0,12.0,80,0.00,,,0.00,meteohub,2013-02-01 13:46:00,
2013-02-01 07:51:00,13.6,8.4,30.18,NW,326,4.0,14.0,79,0.00,,,0.00,meteohub,2013-02-01 13:51:00,
2013-02-01 07:56:00,13.8,8.2,30.18,WNW,287,10.0,14.0,78,0.00,,,0.00,meteohub,2013-02-01 13:56:00,
2013-02-01 08:01:00,14.2,8.2,30.18,WNW,294,8.0,14.0,77,0.00,,,0.00,meteohub,2013-02-01 14:01:00,
2013-02-01 08:06:00,14.2,8.6,30.19,West,276,3.0,14.0,78,0.00,,,0.00,meteohub,2013-02-01 14:06:00,
2013-02-01 08:11:00,14.4,8.8,30.19,West,269,8.0,14.0,78,0.00,,,0.00,meteohub,2013-02-01 14:11:00,
2013-02-01 08:16:00,14.4,9.0,30.19,WSW,256,12.0,14.0,79,0.00,,,0.00,meteohub,2013-02-01 14:16:00,
2013-02-01 08:21:00,14.5,9.5,30.19,West,280,6.0,14.0,80,0.00,,,0.00,meteohub,2013-02-01 14:21:00,
2013-02-01 08:26:00,14.5,9.5,30.20,West,278,8.0,14.0,80,0.00,,,0.00,meteohub,2013-02-01 14:26:00,
2013-02-01 08:31:00,14.7,9.7,30.20,NNW,335,5.0,14.0,80,0.00,,,0.00,meteohub,2013-02-01 14:31:00,
2013-02-01 08:36:00,15.1,10.0,30.20,NW,321,7.0,13.0,80,0.00,,,0.00,meteohub,2013-02-01 14:36:00,
2013-02-01 08:41:00,15.1,9.7,30.21,WNW,298,4.0,13.0,79,0.00,,,0.00,meteohub,2013-02-01 14:41:00,
2013-02-01 08:46:00,15.1,9.5,30.21,NW,304,9.0,16.0,78,0.00,,,0.00,meteohub,2013-02-01 14:46:00,
2013-02-01 08:51:00,15.3,9.3,30.22,WNW,290,11.0,16.0,77,0.00,,,0.00,meteohub,2013-02-01 14:51:00,
2013-02-01 08:56:00,15.6,9.5,30.21,NW,308,12.0,16.0,76,0.00,,,0.00,meteohub,2013-02-01 14:56:00,
2013-02-01 09:01:00,15.6,9.1,30.22,WNW,294,9.0,16.0,75,0.00,,,0.00,meteohub,2013-02-01 15:01:00,
2013-02-01 09:06:00,15.8,8.6,30.22,West,262,13.0,16.0,73,0.00,,,0.00,meteohub,2013-02-01 15:06:00,
2013-02-01 09:11:00,15.8,9.0,30.22,NW,308,14.0,16.0,74,0.00,,,0.00,meteohub,2013-02-01 15:11:00,
2013-02-01 09:16:00,15.6,9.1,30.22,West,264,8.0,14.0,75,0.00,,,0.00,meteohub,2013-02-01 15:16:00,
2013-02-01 09:21:00,15.4,8.6,30.23,NNW,332,8.0,14.0,74,0.00,,,0.00,meteohub,2013-02-01 15:21:00,
2013-02-01 09:26:00,15.4,8.6,30.23,NW,307,10.0,14.0,74,0.00,,,0.00,meteohub,2013-02-01 15:26:00,
2013-02-01 09:32:00,16.0,9.1,30.23,WNW,300,6.0,14.0,74,0.00,,,0.00,meteohub,2013-02-01 15:32:00,
2013-02-01 09:37:00,16.2,9.3,30.23,West,281,9.0,14.0,74,0.00,,,0.00,meteohub,2013-02-01 15:37:00,
2013-02-01 09:42:00,16.2,9.3,30.23,WNW,300,6.0,14.0,74,0.00,,,0.00,meteohub,2013-02-01 15:42:00,
2013-02-01 09:47:00,16.0,9.1,30.23,NNW,327,12.0,14.0,74,0.00,,,0.00,meteohub,2013-02-01 15:47:00,
2013-02-01 09:52:00,15.6,8.8,30.24,NW,305,9.0,14.0,74,0.00,,,0.00,meteohub,2013-02-01 15:52:00,
2013-02-01 09:57:00,16.0,8.8,30.24,NW,314,7.0,16.0,73,0.00,,,0.00,meteohub,2013-02-01 15:57:00,
2013-02-01 10:02:00,16.3,9.5,30.24,West,277,3.0,16.0,74,0.00,,,0.00,meteohub,2013-02-01 16:02:00,
2013-02-01 10:07:00,16.7,7.0,30.24,NW,308,8.0,13.0,65,0.00,,,0.00,meteohub,2013-02-01 16:07:00,
2013-02-01 10:12:00,16.3,7.0,30.24,NW,321,6.0,13.0,66,0.00,,,0.00,meteohub,2013-02-01 16:12:00,
2013-02-01 10:17:00,16.3,7.0,30.24,WNW,297,11.0,20.0,66,0.00,,,0.00,meteohub,2013-02-01 16:17:00,
2013-02-01 10:22:00,16.2,5.7,30.25,NNW,329,7.0,20.0,63,0.00,,,0.00,meteohub,2013-02-01 16:22:00,
2013-02-01 10:27:00,16.2,5.7,30.25,NW,319,10.0,20.0,63,0.00,,,0.00,meteohub,2013-02-01 16:27:00,
2013-02-01 10:32:00,16.3,6.3,30.24,NNW,347,8.0,20.0,64,0.00,,,0.00,meteohub,2013-02-01 16:32:00,
2013-02-01 10:37:00,16.3,6.6,30.25,NW,312,7.0,19.0,65,0.00,,,0.00,meteohub,2013-02-01 16:37:00,
2013-02-01 10:42:00,16.3,6.6,30.25,NW,314,11.0,19.0,65,0.00,,,0.00,meteohub,2013-02-01 16:42:00,
2013-02-01 10:47:00,16.7,7.3,30.25,West,277,10.0,17.0,66,0.00,,,0.00,meteohub,2013-02-01 16:47:00,
2013-02-01 10:52:00,16.9,7.5,30.25,WNW,290,4.0,17.0,66,0.00,,,0.00,meteohub,2013-02-01 16:52:00,
2013-02-01 10:57:00,17.2,8.2,30.25,WNW,298,9.0,17.0,67,0.00,,,0.00,meteohub,2013-02-01 16:57:00,
2013-02-01 11:02:00,16.9,7.5,30.25,WNW,288,8.0,17.0,66,0.00,,,0.00,meteohub,2013-02-01 17:02:00,
2013-02-01 11:07:00,16.5,7.9,30.25,NW,305,9.0,17.0,68,0.00,,,0.00,meteohub,2013-02-01 17:07:00,
2013-02-01 11:12:00,16.3,8.6,30.25,NW,309,3.0,17.0,71,0.00,,,0.00,meteohub,2013-02-01 17:12:00,
2013-02-01 11:17:00,16.5,8.8,30.25,NW,312,5.0,15.0,71,0.00,,,0.00,meteohub,2013-02-01 17:17:00,
2013-02-01 11:22:00,16.9,8.8,30.25,West,259,4.0,15.0,70,0.00,,,0.00,meteohub,2013-02-01 17:22:00,
2013-02-01 11:27:00,17.1,9.3,30.25,West,259,7.0,11.0,71,0.00,,,0.00,meteohub,2013-02-01 17:27:00,
2013-02-01 11:32:00,17.1,9.9,30.25,West,271,5.0,11.0,73,0.00,,,0.00,meteohub,2013-02-01 17:32:00,
2013-02-01 11:37:00,16.9,9.1,30.25,WNW,298,7.0,12.0,71,0.00,,,0.00,meteohub,2013-02-01 17:37:00,
2013-02-01 11:42:00,16.7,8.6,30.25,NW,317,9.0,12.0,70,0.00,,,0.00,meteohub,2013-02-01 17:42:00,
2013-02-01 11:47:00,16.5,8.4,30.25,WNW,294,6.0,15.0,70,0.00,,,0.00,meteohub,2013-02-01 17:47:00,
2013-02-01 11:52:00,16.3,8.6,30.25,NW,323,6.0,15.0,71,0.00,,,0.00,meteohub,2013-02-01 17:52:00,
2013-02-01 11:57:00,16.3,9.1,30.25,West,267,6.0,14.0,73,0.00,,,0.00,meteohub,2013-02-01 17:57:00,
2013-02-01 12:02:00,16.2,9.7,30.25,North,350,13.0,14.0,75,0.00,,,0.00,meteohub,2013-02-01 18:02:00,
2013-02-01 12:07:00,16.0,9.7,30.25,NW,322,5.0,14.0,76,0.00,,,0.00,meteohub,2013-02-01 18:07:00,
2013-02-01 12:12:00,16.2,10.6,30.25,West,260,10.0,16.0,78,0.00,,,0.00,meteohub,2013-02-01 18:12:00,
2013-02-01 12:17:00,16.5,9.7,30.25,West,277,7.0,16.0,74,0.00,,,0.00,meteohub,2013-02-01 18:17:00,
2013-02-01 12:23:00,16.7,9.5,30.25,West,280,9.0,16.0,73,0.00,,,0.00,meteohub,2013-02-01 18:23:00,
2013-02-01 12:28:00,16.9,10.0,30.25,West,277,10.0,15.0,74,0.00,,,0.00,meteohub,2013-02-01 18:28:00,
2013-02-01 12:33:00,16.7,10.4,30.25,WSW,257,13.0,18.0,76,0.00,,,0.00,meteohub,2013-02-01 18:33:00,
2013-02-01 12:38:00,16.3,10.0,30.25,WSW,238,5.0,18.0,76,0.00,,,0.00,meteohub,2013-02-01 18:38:00,
2013-02-01 12:43:00,16.5,10.9,30.25,NW,317,3.0,18.0,78,0.00,,,0.00,meteohub,2013-02-01 18:43:00,
2013-02-01 12:48:00,16.7,10.2,30.25,NW,304,5.0,17.0,75,0.00,,,0.00,meteohub,2013-02-01 18:48:00,
2013-02-01 12:53:00,17.1,10.6,30.25,WNW,295,3.0,12.0,75,0.00,,,0.00,meteohub,2013-02-01 18:53:00,
2013-02-01 12:58:00,17.1,9.9,30.25,West,267,9.0,12.0,73,0.00,,,0.00,meteohub,2013-02-01 18:58:00,
2013-02-01 13:03:00,16.5,9.1,30.25,WNW,282,9.0,12.0,72,0.00,,,0.00,meteohub,2013-02-01 19:03:00,
2013-02-01 13:08:00,16.5,8.8,30.25,SW,222,9.0,19.0,71,0.00,,,0.00,meteohub,2013-02-01 19:08:00,
2013-02-01 13:13:00,16.5,8.1,30.25,WNW,296,6.0,19.0,69,0.00,,,0.00,meteohub,2013-02-01 19:13:00,
2013-02-01 13:18:00,16.7,8.1,30.25,West,274,9.0,18.0,68,0.00,,,0.00,meteohub,2013-02-01 19:18:00,
2013-02-01 13:23:00,16.5,7.5,30.25,WNW,293,6.0,14.0,67,0.00,,,0.00,meteohub,2013-02-01 19:23:00,
2013-02-01 13:28:00,16.7,7.7,30.25,WSW,242,5.0,14.0,67,0.00,,,0.00,meteohub,2013-02-01 19:28:00,
2013-02-01 13:33:00,16.3,7.0,30.25,West,264,11.0,23.0,66,0.00,,,0.00,meteohub,2013-02-01 19:33:00,
2013-02-01 13:38:00,16.5,7.9,30.25,WNW,289,5.0,23.0,68,0.00,,,0.00,meteohub,2013-02-01 19:38:00,
2013-02-01 13:43:00,16.3,7.3,30.25,West,266,11.0,23.0,67,0.00,,,0.00,meteohub,2013-02-01 19:43:00,
2013-02-01 13:48:00,16.3,7.3,30.25,WNW,294,9.0,23.0,67,0.00,,,0.00,meteohub,2013-02-01 19:48:00,
2013-02-01 13:53:00,16.3,7.9,30.25,WNW,302,11.0,18.0,69,0.00,,,0.00,meteohub,2013-02-01 19:53:00,
2013-02-01 13:58:00,16.3,7.3,30.26,West,280,7.0,18.0,67,0.00,,,0.00,meteohub,2013-02-01 19:58:00,
2013-02-01 14:03:00,16.3,7.3,30.26,West,274,4.0,13.0,67,0.00,,,0.00,meteohub,2013-02-01 20:03:00,
2013-02-01 14:08:00,16.3,7.0,30.26,WNW,294,8.0,13.0,66,0.00,,,0.00,meteohub,2013-02-01 20:08:00,
2013-02-01 14:13:00,16.2,6.8,30.26,West,262,6.0,13.0,66,0.00,,,0.00,meteohub,2013-02-01 20:13:00,
2013-02-01 14:18:00,16.2,7.5,30.27,West,263,9.0,12.0,68,0.00,,,0.00,meteohub,2013-02-01 20:18:00,
2013-02-01 14:23:00,16.0,7.9,30.27,WNW,294,6.0,14.0,70,0.00,,,0.00,meteohub,2013-02-01 20:23:00,
2013-02-01 14:28:00,15.8,8.4,30.27,West,270,7.0,14.0,72,0.00,,,0.00,meteohub,2013-02-01 20:28:00,
2013-02-01 14:33:00,15.8,8.1,30.27,WSW,252,7.0,13.0,71,0.00,,,0.00,meteohub,2013-02-01 20:33:00,
2013-02-01 14:38:00,15.6,7.5,30.27,WSW,249,12.0,13.0,70,0.00,,,0.00,meteohub,2013-02-01 20:38:00,
2013-02-01 14:43:00,15.6,7.5,30.27,WSW,252,6.0,16.0,70,0.00,,,0.00,meteohub,2013-02-01 20:43:00,
2013-02-01 14:48:00,15.6,7.9,30.27,West,278,12.0,16.0,71,0.00,,,0.00,meteohub,2013-02-01 20:48:00,
2013-02-01 14:53:00,15.4,7.3,30.27,West,278,4.0,17.0,70,0.00,,,0.00,meteohub,2013-02-01 20:53:00,
2013-02-01 14:58:00,15.4,7.3,30.28,WSW,255,12.0,17.0,70,0.00,,,0.00,meteohub,2013-02-01 20:58:00,
2013-02-01 15:03:00,15.3,7.2,30.28,WNW,284,7.0,14.0,70,0.00,,,0.00,meteohub,2013-02-01 21:03:00,
2013-02-01 15:08:00,15.4,7.3,30.28,WSW,242,9.0,14.0,70,0.00,,,0.00,meteohub,2013-02-01 21:08:00,
2013-02-01 15:14:00,15.3,7.0,30.28,WSW,245,8.0,14.0,69,0.00,,,0.00,meteohub,2013-02-01 21:14:00,
2013-02-01 15:19:00,14.9,6.6,30.28,West,264,4.0,16.0,69,0.00,,,0.00,meteohub,2013-02-01 21:19:00,
2013-02-01 15:24:00,14.7,7.0,30.28,NW,305,5.0,16.0,71,0.00,,,0.00,meteohub,2013-02-01 21:24:00,
2013-02-01 15:29:00,14.4,7.3,30.28,West,270,6.0,16.0,73,0.00,,,0.00,meteohub,2013-02-01 21:29:00,
2013-02-01 15:34:00,14.2,7.2,30.28,WNW,288,16.0,16.0,73,0.00,,,0.00,meteohub,2013-02-01 21:34:00,
2013-02-01 15:39:00,13.8,6.8,30.28,West,263,10.0,18.0,73,0.00,,,0.00,meteohub,2013-02-01 21:39:00,
2013-02-01 15:44:00,13.8,7.2,30.28,West,273,9.0,18.0,74,0.00,,,0.00,meteohub,2013-02-01 21:44:00,
2013-02-01 15:49:00,13.6,7.0,30.28,WSW,248,6.0,18.0,74,0.00,,,0.00,meteohub,2013-02-01 21:49:00,
2013-02-01 15:54:00,13.5,6.8,30.28,WSW,253,9.0,14.0,74,0.00,,,0.00,meteohub,2013-02-01 21:54:00,
2013-02-01 15:59:00,13.3,6.6,30.29,West,277,10.0,15.0,74,0.00,,,0.00,meteohub,2013-02-01 21:59:00,
2013-02-01 16:04:00,13.3,6.3,30.29,NW,308,6.0,15.0,73,0.00,,,0.00,meteohub,2013-02-01 22:04:00,
2013-02-01 16:09:00,13.1,6.1,30.28,WSW,243,8.0,15.0,73,0.00,,,0.00,meteohub,2013-02-01 22:09:00,
2013-02-01 16:14:00,13.1,6.1,30.28,WSW,255,11.0,15.0,73,0.00,,,0.00,meteohub,2013-02-01 22:14:00,
2013-02-01 16:19:00,12.9,5.5,30.29,WNW,283,5.0,13.0,72,0.00,,,0.00,meteohub,2013-02-01 22:19:00,
2013-02-01 16:24:00,12.7,5.4,30.29,WSW,249,12.0,15.0,72,0.00,,,0.00,meteohub,2013-02-01 22:24:00,
2013-02-01 16:29:00,12.6,5.2,30.29,West,281,6.0,15.0,72,0.00,,,0.00,meteohub,2013-02-01 22:29:00,
2013-02-01 16:34:00,12.4,5.0,30.29,WNW,288,5.0,17.0,72,0.00,,,0.00,meteohub,2013-02-01 22:34:00,
2013-02-01 16:39:00,12.2,4.8,30.29,West,274,6.0,17.0,72,0.00,,,0.00,meteohub,2013-02-01 22:39:00,
2013-02-01 16:44:00,12.0,4.8,30.29,WSW,250,10.0,16.0,72,0.00,,,0.00,meteohub,2013-02-01 22:44:00,
2013-02-01 16:49:00,11.8,4.6,30.29,WNW,285,6.0,16.0,72,0.00,,,0.00,meteohub,2013-02-01 22:49:00,
2013-02-01 16:54:00,11.8,4.6,30.30,West,273,11.0,16.0,72,0.00,,,0.00,meteohub,2013-02-01 22:54:00,
2013-02-01 16:59:00,11.7,4.1,30.30,West,267,6.0,16.0,71,0.00,,,0.00,meteohub,2013-02-01 22:59:00,
2013-02-01 17:04:00,11.5,3.9,30.30,WNW,285,7.0,20.0,71,0.00,,,0.00,meteohub,2013-02-01 23:04:00,
2013-02-01 17:09:00,11.1,3.6,30.30,West,269,15.0,20.0,71,0.00,,,0.00,meteohub,2013-02-01 23:09:00,
2013-02-01 17:14:00,11.1,3.6,30.30,WSW,239,8.0,18.0,71,0.00,,,0.00,meteohub,2013-02-01 23:14:00,
2013-02-01 17:19:00,10.9,3.4,30.30,WNW,285,10.0,18.0,71,0.00,,,0.00,meteohub,2013-02-01 23:19:00,
2013-02-01 17:24:00,10.8,3.2,30.30,WSW,248,10.0,18.0,71,0.00,,,0.00,meteohub,2013-02-01 23:24:00,
2013-02-01 17:29:00,10.8,3.2,30.30,West,281,7.0,16.0,71,0.00,,,0.00,meteohub,2013-02-01 23:29:00,
2013-02-01 17:34:00,10.8,3.6,30.30,West,276,10.0,16.0,72,0.00,,,0.00,meteohub,2013-02-01 23:34:00,
2013-02-01 17:39:00,10.6,3.0,30.30,WNW,284,6.0,18.0,71,0.00,,,0.00,meteohub,2013-02-01 23:39:00,
2013-02-01 17:44:00,10.6,3.0,30.30,WSW,239,11.0,16.0,71,0.00,,,0.00,meteohub,2013-02-01 23:44:00,
2013-02-01 17:49:00,10.4,2.8,30.30,WNW,295,12.0,18.0,71,0.00,,,0.00,meteohub,2013-02-01 23:49:00,
2013-02-01 17:54:00,10.4,2.8,30.31,West,262,8.0,18.0,71,0.00,,,0.00,meteohub,2013-02-01 23:54:00,
2013-02-01 17:59:00,10.4,2.8,30.31,West,267,8.0,18.0,71,0.00,,,0.00,meteohub,2013-02-01 23:59:00,
2013-02-01 18:04:00,10.4,2.8,30.30,West,278,10.0,16.0,71,0.00,,,0.00,meteohub,2013-02-02 00:04:00,
2013-02-01 18:09:00,10.2,2.7,30.30,West,269,8.0,16.0,71,0.00,,,0.00,meteohub,2013-02-02 00:09:00,
2013-02-01 18:14:00,10.2,3.0,30.31,West,276,8.0,18.0,72,0.00,,,0.00,meteohub,2013-02-02 00:14:00,
2013-02-01 18:19:00,10.0,2.5,30.31,WSW,254,7.0,18.0,71,0.00,,,0.00,meteohub,2013-02-02 00:19:00,
2013-02-01 18:25:00,9.9,2.3,30.31,WNW,297,5.0,14.0,71,0.00,,,0.00,meteohub,2013-02-02 00:25:00,
2013-02-01 18:30:00,9.5,1.9,30.32,WSW,258,5.0,17.0,71,0.00,,,0.00,meteohub,2013-02-02 00:30:00,
2013-02-01 18:35:00,9.3,1.8,30.32,WSW,253,7.0,17.0,71,0.00,,,0.00,meteohub,2013-02-02 00:35:00,
2013-02-01 18:40:00,9.0,1.4,30.32,WNW,283,7.0,17.0,71,0.00,,,0.00,meteohub,2013-02-02 00:40:00,
2013-02-01 18:45:00,8.8,1.6,30.32,WSW,250,8.0,14.0,72,0.00,,,0.00,meteohub,2013-02-02 00:45:00,
2013-02-01 18:50:00,8.6,1.4,30.32,West,263,5.0,14.0,72,0.00,,,0.00,meteohub,2013-02-02 00:50:00,
2013-02-01 18:55:00,8.4,1.6,30.32,WSW,253,4.0,13.0,73,0.00,,,0.00,meteohub,2013-02-02 00:55:00,
2013-02-01 19:00:00,8.2,1.4,30.32,NNW,328,8.0,17.0,73,0.00,,,0.00,meteohub,2013-02-02 01:00:00,
2013-02-01 19:05:00,8.2,1.8,30.32,WNW,297,4.0,17.0,74,0.00,,,0.00,meteohub,2013-02-02 01:05:00,
2013-02-01 19:10:00,8.1,1.6,30.32,NW,314,7.0,12.0,74,0.00,,,0.00,meteohub,2013-02-02 01:10:00,
2013-02-01 19:15:00,7.9,1.4,30.32,WNW,283,6.0,12.0,74,0.00,,,0.00,meteohub,2013-02-02 01:15:00,
2013-02-01 19:20:00,7.9,1.4,30.32,SW,221,5.0,12.0,74,0.00,,,0.00,meteohub,2013-02-02 01:20:00,
2013-02-01 19:25:00,7.7,1.4,30.32,WNW,287,6.0,14.0,75,0.00,,,0.00,meteohub,2013-02-02 01:25:00,
2013-02-01 19:30:00,7.5,1.2,30.32,WSW,252,7.0,14.0,75,0.00,,,0.00,meteohub,2013-02-02 01:30:00,
2013-02-01 19:35:00,7.5,1.2,30.32,West,266,1.0,11.0,75,0.00,,,0.00,meteohub,2013-02-02 01:35:00,
2013-02-01 19:40:00,7.3,1.0,30.32,West,271,4.0,10.0,75,0.00,,,0.00,meteohub,2013-02-02 01:40:00,
2013-02-01 19:45:00,7.3,1.4,30.32,West,259,2.0,9.0,76,0.00,,,0.00,meteohub,2013-02-02 01:45:00,
2013-02-01 20:46:00,7.2,1.8,30.30,SE,131,2.0,8.0,78,0.00,,,0.00,meteohub,2013-02-02 02:46:00,
2013-02-01 20:51:00,7.2,1.8,30.30,SSW,203,2.0,8.0,78,0.00,,,0.00,meteohub,2013-02-02 02:51:00,
2013-02-01 20:56:00,7.0,1.6,30.30,WSW,242,2.0,7.0,78,0.00,,,0.00,meteohub,2013-02-02 02:56:00,
2013-02-01 21:01:00,7.0,1.9,30.30,West,267,2.0,6.0,79,0.00,,,0.00,meteohub,2013-02-02 03:01:00,
2013-02-01 21:06:00,7.0,1.9,30.30,West,273,1.0,4.0,79,0.00,,,0.00,meteohub,2013-02-02 03:06:00,
2013-02-01 21:10:00,6.8,1.8,30.30,WSW,253,2.0,4.0,79,0.00,,,0.00,meteohub,2013-02-02 03:10:00,
2013-02-01 21:12:00,6.8,1.8,30.30,South,183,1.0,8.0,79,0.00,,,0.00,meteohub,2013-02-02 03:12:00,
2013-02-01 21:17:00,6.6,1.8,30.30,SE,142,2.0,8.0,80,0.00,,,0.00,meteohub,2013-02-02 03:17:00,
2013-02-01 21:22:00,6.6,1.8,30.30,SW,229,1.0,8.0,80,0.00,,,0.00,meteohub,2013-02-02 03:22:00,
2013-02-01 21:27:00,6.8,1.9,30.30,WSW,238,3.0,7.0,80,0.00,,,0.00,meteohub,2013-02-02 03:27:00,
2013-02-01 21:32:00,7.0,2.1,30.30,South,189,1.0,7.0,80,0.00,,,0.00,meteohub,2013-02-02 03:32:00,
2013-02-01 21:37:00,7.0,2.1,30.30,SW,232,4.0,7.0,80,0.00,,,0.00,meteohub,2013-02-02 03:37:00,
2013-02-01 21:42:00,7.2,2.3,30.30,WSW,252,5.0,6.0,80,0.00,,,0.00,meteohub,2013-02-02 03:42:00,
2013-02-01 21:47:00,7.3,2.5,30.30,SW,224,1.0,7.0,80,0.00,,,0.00,meteohub,2013-02-02 03:47:00,
2013-02-01 21:52:00,7.3,2.5,30.30,SW,214,3.0,8.0,80,0.00,,,0.00,meteohub,2013-02-02 03:52:00,
2013-02-01 21:57:00,7.5,2.7,30.29,South,179,3.0,8.0,80,0.00,,,0.00,meteohub,2013-02-02 03:57:00,
2013-02-01 22:02:00,7.7,2.8,30.29,SW,221,5.0,7.0,80,0.00,,,0.00,meteohub,2013-02-02 04:02:00,
2013-02-01 22:07:00,7.9,3.0,30.28,SW,221,3.0,9.0,80,0.00,,,0.00,meteohub,2013-02-02 04:07:00,
2013-02-01 22:12:00,8.1,3.2,30.28,West,276,2.0,9.0,80,0.00,,,0.00,meteohub,2013-02-02 04:12:00,
2013-02-01 22:17:00,8.2,3.4,30.28,SW,232,7.0,12.0,80,0.00,,,0.00,meteohub,2013-02-02 04:17:00,
2013-02-01 22:22:00,8.4,3.6,30.28,SSW,202,5.0,12.0,80,0.00,,,0.00,meteohub,2013-02-02 04:22:00,
2013-02-01 22:27:00,8.8,3.9,30.28,SW,224,5.0,12.0,80,0.00,,,0.00,meteohub,2013-02-02 04:27:00,
2013-02-01 22:32:00,8.8,3.9,30.28,SSW,203,3.0,11.0,80,0.00,,,0.00,meteohub,2013-02-02 04:32:00,
2013-02-01 22:37:00,9.0,4.1,30.28,WSW,240,2.0,10.0,80,0.00,,,0.00,meteohub,2013-02-02 04:37:00,
2013-02-01 22:42:00,9.1,4.3,30.28,SW,225,3.0,10.0,80,0.00,,,0.00,meteohub,2013-02-02 04:42:00,
2013-02-01 22:47:00,9.3,4.5,30.28,WSW,242,3.0,12.0,80,0.00,,,0.00,meteohub,2013-02-02 04:47:00,
2013-02-01 22:52:00,9.5,4.3,30.28,SW,228,7.0,12.0,79,0.00,,,0.00,meteohub,2013-02-02 04:52:00,
2013-02-01 22:57:00,9.7,4.8,30.27,WSW,255,7.0,12.0,80,0.00,,,0.00,meteohub,2013-02-02 04:57:00,
2013-02-01 23:00:00,9.7,4.8,30.27,NW,311,0.0,12.0,80,0.00,,,0.00,meteohub,2013-02-02 05:00:00,
2013-02-01 23:01:00,9.7,4.8,30.27,WSW,243,2.0,11.0,80,0.00,,,0.00,meteohub,2013-02-02 05:01:00,
2013-02-01 23:06:00,9.9,5.0,30.27,WSW,248,3.0,11.0,80,0.00,,,0.00,meteohub,2013-02-02 05:06:00,
2013-02-01 23:11:00,9.9,5.0,30.27,SSW,208,1.0,11.0,80,0.00,,,0.00,meteohub,2013-02-02 05:11:00,
2013-02-01 23:12:00,9.9,5.0,30.27,SW,219,7.0,11.0,80,0.00,,,0.00,meteohub,2013-02-02 05:12:00,
2013-02-01 23:17:00,10.0,5.2,30.27,SSW,204,4.0,9.0,80,0.00,,,0.00,meteohub,2013-02-02 05:17:00,
2013-02-01 23:22:00,10.0,5.2,30.27,WSW,249,2.0,9.0,80,0.00,,,0.00,meteohub,2013-02-02 05:22:00,
2013-02-01 23:27:00,10.2,5.4,30.27,SW,224,4.0,9.0,80,0.00,,,0.00,meteohub,2013-02-02 05:27:00,
2013-02-01 23:32:00,10.2,5.4,30.27,West,260,4.0,10.0,80,0.00,,,0.00,meteohub,2013-02-02 05:32:00,
2013-02-01 23:37:00,10.2,5.4,30.26,WSW,256,6.0,10.0,80,0.00,,,0.00,meteohub,2013-02-02 05:37:00,
2013-02-01 23:42:00,10.2,5.4,30.27,WSW,245,2.0,11.0,80,0.00,,,0.00,meteohub,2013-02-02 05:42:00,
2013-02-01 23:47:00,10.2,5.4,30.27,WSW,243,4.0,12.0,80,0.00,,,0.00,meteohub,2013-02-02 05:47:00,
2013-02-01 23:52:00,10.2,5.4,30.26,West,278,3.0,12.0,80,0.00,,,0.00,meteohub,2013-02-02 05:52:00,
2013-02-01 23:57:00,10.2,5.4,30.27,North,5,2.0,10.0,80,0.00,,,0.00,meteohub,2013-02-02 05:57:00,